createdAt,value
2018-01-30T00:00:32.062Z,0
2018-01-30T00:01:32.260Z,0
2018-01-30T00:02:31.754Z,0
2018-01-30T00:03:32.034Z,0
2018-01-30T00:04:31.482Z,0
2018-01-30T00:05:31.823Z,0
2018-01-30T00:06:32.334Z,0
2018-01-30T00:07:31.998Z,0
2018-01-30T00:08:31.728Z,0
2018-01-30T00:09:32.223Z,0
2018-01-30T00:10:31.813Z,0
2018-01-30T00:11:32.219Z,0
2018-01-30T00:12:31.473Z,0
2018-01-30T00:13:31.701Z,0
2018-01-30T00:14:31.704Z,0
2018-01-30T00:15:31.942Z,0
2018-01-30T00:16:31.956Z,0
2018-01-30T00:17:31.945Z,0
2018-01-30T00:18:31.941Z,0
2018-01-30T00:19:31.436Z,0
2018-01-30T00:20:32.168Z,0
2018-01-30T00:21:31.664Z,0
2018-01-30T00:22:31.923Z,0
2018-01-30T00:23:31.656Z,0
2018-01-30T00:24:31.904Z,0
2018-01-30T00:25:32.205Z,0
2018-01-30T00:26:31.910Z,0
2018-01-30T00:27:31.396Z,0
2018-01-30T00:28:32.439Z,0
2018-01-30T00:29:31.887Z,0
2018-01-30T00:30:32.143Z,0
2018-01-30T00:31:31.630Z,0
2018-01-30T00:32:32.174Z,0
2018-01-30T00:33:31.938Z,0
2018-01-30T00:34:31.663Z,0
2018-01-30T00:35:31.610Z,0
2018-01-30T00:36:31.866Z,0
2018-01-30T00:37:31.621Z,0
2018-01-30T00:38:32.097Z,0
2018-01-30T00:39:31.845Z,0
2018-01-30T00:40:32.093Z,0
2018-01-30T00:41:31.338Z,0
2018-01-30T00:42:31.587Z,0
2018-01-30T00:43:33.875Z,0
2018-01-30T00:44:32.086Z,0
2018-01-30T00:45:31.856Z,0
2018-01-30T00:46:31.814Z,0
2018-01-30T00:47:31.815Z,0
2018-01-30T00:48:32.053Z,0
2018-01-30T00:49:31.554Z,0
2018-01-30T00:50:32.084Z,0
2018-01-30T00:51:32.056Z,0
2018-01-30T00:52:32.054Z,0
2018-01-30T00:53:32.149Z,0
2018-01-30T00:54:31.353Z,0
2018-01-30T00:55:31.837Z,0
2018-01-30T00:56:31.776Z,0
2018-01-30T00:57:31.777Z,0
2018-01-30T00:58:32.024Z,0
2018-01-30T00:59:31.516Z,0
2018-01-30T01:00:31.751Z,0
2018-01-30T01:01:31.998Z,0
2018-01-30T01:02:31.742Z,0
2018-01-30T01:03:31.992Z,0
2018-01-30T01:04:31.495Z,0
2018-01-30T01:05:31.745Z,0
2018-01-30T01:06:31.729Z,0
2018-01-30T01:07:31.728Z,0
2018-01-30T01:08:31.729Z,0
2018-01-30T01:09:31.471Z,0
2018-01-30T01:10:31.976Z,0
2018-01-30T01:11:31.699Z,0
2018-01-30T01:12:31.708Z,0
2018-01-30T01:13:31.464Z,0
2018-01-30T01:14:31.711Z,0
2018-01-30T01:15:31.438Z,0
2018-01-30T01:16:31.700Z,0
2018-01-30T01:17:31.928Z,0
2018-01-30T01:18:31.677Z,0
2018-01-30T01:19:31.678Z,0
2018-01-30T01:20:31.674Z,0
2018-01-30T01:21:31.920Z,0
2018-01-30T01:22:31.671Z,0
2018-01-30T01:23:31.722Z,0
2018-01-30T01:24:31.238Z,0
2018-01-30T01:25:31.682Z,0
2018-01-30T01:26:31.384Z,0
2018-01-30T01:27:31.923Z,0
2018-01-30T01:28:31.379Z,0
2018-01-30T01:29:31.625Z,0
2018-01-30T01:30:31.624Z,0
2018-01-30T01:31:31.875Z,0
2018-01-30T01:32:31.669Z,0
2018-01-30T01:33:31.614Z,0
2018-01-30T01:34:31.607Z,0
2018-01-30T01:35:31.605Z,0
2018-01-30T01:36:31.683Z,0
2018-01-30T01:37:31.596Z,0
2018-01-30T01:38:31.829Z,0
2018-01-30T01:39:31.328Z,0
2018-01-30T01:40:31.641Z,0
2018-01-30T01:41:31.575Z,0
2018-01-30T01:42:31.313Z,0
2018-01-30T01:43:31.085Z,0
2018-01-30T01:44:31.576Z,0
2018-01-30T01:45:31.313Z,0
2018-01-30T01:46:31.304Z,0
2018-01-30T01:47:31.307Z,0
2018-01-30T01:48:31.543Z,0
2018-01-30T01:49:31.802Z,0
2018-01-30T01:50:31.279Z,0
2018-01-30T01:51:31.534Z,0
2018-01-30T01:52:31.560Z,0
2018-01-30T01:53:31.526Z,0
2018-01-30T01:54:31.777Z,0
2018-01-30T01:55:31.625Z,0
2018-01-30T01:56:31.529Z,0
2018-01-30T01:57:31.505Z,0
2018-01-30T01:58:31.520Z,0
2018-01-30T01:59:31.505Z,0
2018-01-30T02:00:31.541Z,0
2018-01-30T02:01:31.235Z,0
2018-01-30T02:02:31.244Z,0
2018-01-30T02:03:31.241Z,0
2018-01-30T02:04:31.210Z,0
2018-01-30T02:05:31.466Z,0
2018-01-30T02:06:31.228Z,0
2018-01-30T02:07:30.951Z,0
2018-01-30T02:08:31.700Z,0
2018-01-30T02:09:31.198Z,0
2018-01-30T02:10:30.951Z,0
2018-01-30T02:11:31.435Z,0
2018-01-30T02:12:31.423Z,0
2018-01-30T02:13:31.436Z,0
2018-01-30T02:14:31.427Z,0
2018-01-30T02:15:31.660Z,0
2018-01-30T02:16:31.685Z,0
2018-01-30T02:17:31.418Z,0
2018-01-30T02:18:31.401Z,0
2018-01-30T02:19:31.395Z,0
2018-01-30T02:20:31.651Z,0
2018-01-30T02:21:31.647Z,0
2018-01-30T02:22:31.386Z,0
2018-01-30T02:23:31.621Z,0
2018-01-30T02:24:31.627Z,0
2018-01-30T02:25:31.645Z,0
2018-01-30T02:26:31.622Z,0
2018-01-30T02:27:31.621Z,0
2018-01-30T02:28:31.604Z,0
2018-01-30T02:29:31.424Z,0
2018-01-30T02:30:31.430Z,0
2018-01-30T02:31:31.087Z,0
2018-01-30T02:32:31.620Z,0
2018-01-30T02:33:31.340Z,0
2018-01-30T02:34:31.090Z,0
2018-01-30T02:35:31.325Z,0
2018-01-30T02:36:31.587Z,0
2018-01-30T02:37:31.561Z,0
2018-01-30T02:38:30.800Z,0
2018-01-30T02:39:31.558Z,0
2018-01-30T02:40:31.581Z,0
2018-01-30T02:41:31.551Z,0
2018-01-30T02:42:31.544Z,0
2018-01-30T02:43:30.794Z,0
2018-01-30T02:44:31.056Z,0
2018-01-30T02:45:31.295Z,0
2018-01-30T02:46:31.541Z,0
2018-01-30T02:47:31.030Z,0
2018-01-30T02:48:31.523Z,0
2018-01-30T02:49:31.270Z,0
2018-01-30T02:50:31.279Z,0
2018-01-30T02:51:31.253Z,0
2018-01-30T02:52:31.493Z,0
2018-01-30T02:53:31.250Z,0
2018-01-30T02:54:31.493Z,0
2018-01-30T02:55:31.493Z,0
2018-01-30T02:56:31.252Z,0
2018-01-30T02:57:31.224Z,0
2018-01-30T02:58:31.225Z,0
2018-01-30T02:59:31.490Z,0
2018-01-30T03:00:30.953Z,0
2018-01-30T03:01:31.222Z,0
2018-01-30T03:02:30.968Z,0
2018-01-30T03:03:31.443Z,0
2018-01-30T03:04:30.941Z,0
2018-01-30T03:05:30.926Z,0
2018-01-30T03:06:31.207Z,0
2018-01-30T03:07:31.446Z,0
2018-01-30T03:08:31.163Z,0
2018-01-30T03:09:31.425Z,0
2018-01-30T03:10:30.997Z,0
2018-01-30T03:11:31.222Z,0
2018-01-30T03:12:31.414Z,0
2018-01-30T03:13:30.896Z,0
2018-01-30T03:14:30.893Z,0
2018-01-30T03:15:30.956Z,0
2018-01-30T03:16:31.138Z,0
2018-01-30T03:17:30.872Z,0
2018-01-30T03:18:30.870Z,0
2018-01-30T03:19:30.870Z,0
2018-01-30T03:20:30.615Z,0
2018-01-30T03:21:31.145Z,0
2018-01-30T03:22:30.850Z,0
2018-01-30T03:23:31.103Z,0
2018-01-30T03:24:30.838Z,0
2018-01-30T03:25:31.097Z,0
2018-01-30T03:26:30.844Z,0
2018-01-30T03:27:31.088Z,0
2018-01-30T03:28:30.819Z,0
2018-01-30T03:29:31.088Z,0
2018-01-30T03:30:31.338Z,0
2018-01-30T03:31:31.318Z,0
2018-01-30T03:32:31.065Z,0
2018-01-30T03:33:30.803Z,0
2018-01-30T03:34:31.050Z,0
2018-01-30T03:35:31.298Z,0
2018-01-30T03:36:31.036Z,0
2018-01-30T03:37:30.784Z,0
2018-01-30T03:38:31.282Z,0
2018-01-30T03:39:31.029Z,0
2018-01-30T03:40:31.316Z,0
2018-01-30T03:41:31.275Z,0
2018-01-30T03:42:31.007Z,0
2018-01-30T03:43:31.009Z,0
2018-01-30T03:44:30.767Z,0
2018-01-30T03:45:30.747Z,0
2018-01-30T03:46:30.998Z,0
2018-01-30T03:47:31.240Z,0
2018-01-30T03:48:30.975Z,0
2018-01-30T03:49:31.231Z,0
2018-01-30T03:50:30.975Z,0
2018-01-30T03:51:31.218Z,0
2018-01-30T03:52:30.711Z,0
2018-01-30T03:53:30.468Z,0
2018-01-30T03:54:31.202Z,0
2018-01-30T03:55:30.742Z,0
2018-01-30T03:56:30.950Z,0
2018-01-30T03:57:31.195Z,0
2018-01-30T03:58:30.692Z,0
2018-01-30T03:59:30.936Z,0
2018-01-30T04:00:30.931Z,0
2018-01-30T04:01:30.925Z,0
2018-01-30T04:02:30.667Z,0
2018-01-30T04:03:31.171Z,0
2018-01-30T04:04:30.908Z,0
2018-01-30T04:05:30.912Z,0
2018-01-30T04:06:30.902Z,0
2018-01-30T04:07:30.892Z,0
2018-01-30T04:08:30.892Z,0
2018-01-30T04:09:30.940Z,0
2018-01-30T04:10:30.915Z,0
2018-01-30T04:11:31.136Z,0
2018-01-30T04:12:30.658Z,0
2018-01-30T04:13:30.881Z,0
2018-01-30T04:14:30.873Z,0
2018-01-30T04:15:31.113Z,0
2018-01-30T04:16:31.121Z,0
2018-01-30T04:17:30.857Z,0
2018-01-30T04:18:31.122Z,0
2018-01-30T04:19:30.849Z,0
2018-01-30T04:20:31.127Z,0
2018-01-30T04:21:30.342Z,0
2018-01-30T04:22:30.840Z,0
2018-01-30T04:23:30.855Z,0
2018-01-30T04:24:30.833Z,0
2018-01-30T04:25:31.080Z,0
2018-01-30T04:26:30.563Z,0
2018-01-30T04:27:31.070Z,0
2018-01-30T04:28:30.810Z,0
2018-01-30T04:29:30.592Z,0
2018-01-30T04:30:30.793Z,0
2018-01-30T04:31:31.043Z,0
2018-01-30T04:32:30.790Z,0
2018-01-30T04:33:30.790Z,0
2018-01-30T04:34:31.035Z,0
2018-01-30T04:35:30.546Z,0
2018-01-30T04:36:31.035Z,0
2018-01-30T04:37:30.547Z,0
2018-01-30T04:38:30.505Z,0
2018-01-30T04:39:31.016Z,0
2018-01-30T04:40:30.518Z,0
2018-01-30T04:41:30.751Z,0
2018-01-30T04:42:30.493Z,0
2018-01-30T04:43:30.502Z,0
2018-01-30T04:44:30.987Z,0
2018-01-30T04:45:30.741Z,0
2018-01-30T04:46:30.722Z,0
2018-01-30T04:47:30.463Z,0
2018-01-30T04:48:31.058Z,0
2018-01-30T04:49:30.723Z,0
2018-01-30T04:50:30.441Z,0
2018-01-30T04:51:30.710Z,0
2018-01-30T04:52:30.965Z,0
2018-01-30T04:53:30.681Z,0
2018-01-30T04:54:30.442Z,0
2018-01-30T04:55:30.687Z,0
2018-01-30T04:56:30.930Z,0
2018-01-30T04:57:30.428Z,0
2018-01-30T04:58:30.731Z,0
2018-01-30T04:59:30.942Z,0
2018-01-30T05:00:30.670Z,0
2018-01-30T05:01:30.405Z,0
2018-01-30T05:02:30.413Z,0
2018-01-30T05:03:30.392Z,0
2018-01-30T05:04:30.406Z,0
2018-01-30T05:05:30.646Z,0
2018-01-30T05:06:30.626Z,0
2018-01-30T05:07:30.890Z,0
2018-01-30T05:08:30.898Z,0
2018-01-30T05:09:30.886Z,0
2018-01-30T05:10:30.616Z,0
2018-01-30T05:11:30.363Z,0
2018-01-30T05:12:30.597Z,0
2018-01-30T05:13:30.342Z,0
2018-01-30T05:14:30.347Z,0
2018-01-30T05:15:30.841Z,0
2018-01-30T05:16:30.590Z,0
2018-01-30T05:17:30.575Z,0
2018-01-30T05:18:30.837Z,0
2018-01-30T05:19:30.570Z,0
2018-01-30T05:20:30.583Z,0
2018-01-30T05:21:30.818Z,0
2018-01-30T05:22:30.569Z,0
2018-01-30T05:23:30.286Z,0
2018-01-30T05:24:30.547Z,0
2018-01-30T05:25:30.791Z,0
2018-01-30T05:26:30.282Z,0
2018-01-30T05:27:30.523Z,0
2018-01-30T05:28:30.268Z,0
2018-01-30T05:29:30.523Z,0
2018-01-30T05:30:30.508Z,0
2018-01-30T05:31:30.504Z,0
2018-01-30T05:32:30.269Z,0
2018-01-30T05:33:30.492Z,0
2018-01-30T05:34:30.490Z,0
2018-01-30T05:35:30.533Z,0
2018-01-30T05:36:30.539Z,0
2018-01-30T05:37:30.472Z,0
2018-01-30T05:38:30.465Z,0
2018-01-30T05:39:30.721Z,0
2018-01-30T05:40:30.464Z,0
2018-01-30T05:41:30.707Z,0
2018-01-30T05:42:30.198Z,0
2018-01-30T05:43:30.207Z,0
2018-01-30T05:44:30.542Z,0
2018-01-30T05:45:30.182Z,0
2018-01-30T05:46:29.934Z,0
2018-01-30T05:47:29.922Z,0
2018-01-30T05:48:30.427Z,0
2018-01-30T05:49:30.161Z,0
2018-01-30T05:50:30.417Z,0
2018-01-30T05:51:30.165Z,0
2018-01-30T05:52:30.410Z,0
2018-01-30T05:53:30.148Z,0
2018-01-30T05:54:30.412Z,0
2018-01-30T05:55:30.387Z,0
2018-01-30T05:56:30.435Z,0
2018-01-30T05:57:30.398Z,0
2018-01-30T05:58:30.367Z,0
2018-01-30T05:59:30.397Z,0
2018-01-30T06:00:30.378Z,0
2018-01-30T06:01:30.355Z,0
2018-01-30T06:02:30.364Z,0
2018-01-30T06:03:30.347Z,0
2018-01-30T06:04:30.341Z,0
2018-01-30T06:05:30.344Z,0
2018-01-30T06:06:30.328Z,0
2018-01-30T06:07:30.573Z,0
2018-01-30T06:08:30.318Z,0
2018-01-30T06:09:30.310Z,0
2018-01-30T06:10:30.349Z,0
2018-01-30T06:11:30.619Z,0
2018-01-30T06:12:30.301Z,0
2018-01-30T06:13:30.298Z,0
2018-01-30T06:14:30.551Z,0
2018-01-30T06:15:30.533Z,0
2018-01-30T06:16:30.528Z,0
2018-01-30T06:17:30.278Z,0
2018-01-30T06:18:30.279Z,0
2018-01-30T06:19:29.760Z,0
2018-01-30T06:20:30.255Z,0
2018-01-30T06:21:30.252Z,0
2018-01-30T06:22:29.994Z,0
2018-01-30T06:23:30.493Z,0
2018-01-30T06:24:30.487Z,0
2018-01-30T06:25:29.980Z,0
2018-01-30T06:26:30.231Z,0
2018-01-30T06:27:29.971Z,0
2018-01-30T06:28:30.215Z,0
2018-01-30T06:29:30.222Z,0
2018-01-30T06:30:30.239Z,0
2018-01-30T06:31:30.204Z,0
2018-01-30T06:32:29.693Z,4
2018-01-30T06:33:30.435Z,4
2018-01-30T06:34:30.187Z,4
2018-01-30T06:35:29.973Z,0
2018-01-30T06:36:30.184Z,4
2018-01-30T06:37:29.915Z,4
2018-01-30T06:38:29.660Z,8
2018-01-30T06:39:30.418Z,4
2018-01-30T06:40:30.186Z,4
2018-01-30T06:41:30.146Z,8
2018-01-30T06:42:30.404Z,8
2018-01-30T06:43:29.893Z,12
2018-01-30T06:44:29.870Z,12
2018-01-30T06:45:30.471Z,12
2018-01-30T06:46:30.124Z,12
2018-01-30T06:47:30.109Z,16
2018-01-30T06:48:30.124Z,16
2018-01-30T06:49:30.352Z,20
2018-01-30T06:50:29.838Z,20
2018-01-30T06:51:30.416Z,24
2018-01-30T06:52:30.077Z,28
2018-01-30T06:53:30.335Z,36
2018-01-30T06:54:30.073Z,36
2018-01-30T06:55:30.164Z,36
2018-01-30T06:56:30.309Z,36
2018-01-30T06:57:29.794Z,44
2018-01-30T06:58:30.292Z,48
2018-01-30T06:59:29.535Z,52
2018-01-30T07:00:30.023Z,64
2018-01-30T07:01:30.038Z,72
2018-01-30T07:02:30.016Z,80
2018-01-30T07:03:30.254Z,100
2018-01-30T07:04:30.000Z,120
2018-01-30T07:05:30.003Z,136
2018-01-30T07:06:29.737Z,152
2018-01-30T07:07:30.235Z,164
2018-01-30T07:08:29.987Z,172
2018-01-30T07:09:29.718Z,176
2018-01-30T07:10:30.042Z,184
2018-01-30T07:11:30.209Z,192
2018-01-30T07:12:30.094Z,204
2018-01-30T07:13:30.190Z,216
2018-01-30T07:14:29.940Z,236
2018-01-30T07:15:30.180Z,256
2018-01-30T07:16:29.929Z,284
2018-01-30T07:17:29.928Z,312
2018-01-30T07:18:29.922Z,324
2018-01-30T07:19:29.657Z,340
2018-01-30T07:20:30.156Z,348
2018-01-30T07:21:29.907Z,356
2018-01-30T07:22:29.893Z,364
2018-01-30T07:23:30.163Z,364
2018-01-30T07:24:29.878Z,372
2018-01-30T07:25:30.127Z,388
2018-01-30T07:26:29.879Z,408
2018-01-30T07:27:29.907Z,436
2018-01-30T07:28:30.136Z,464
2018-01-30T07:29:30.109Z,504
2018-01-30T07:30:29.844Z,556
2018-01-30T07:31:29.599Z,628
2018-01-30T07:32:30.098Z,716
2018-01-30T07:33:30.085Z,820
2018-01-30T07:34:29.835Z,928
2018-01-30T07:35:29.589Z,1012
2018-01-30T07:36:29.826Z,976
2018-01-30T07:37:30.056Z,848
2018-01-30T07:38:30.052Z,776
2018-01-30T07:39:29.810Z,752
2018-01-30T07:40:30.101Z,696
2018-01-30T07:41:29.532Z,660
2018-01-30T07:42:30.027Z,660
2018-01-30T07:43:30.022Z,680
2018-01-30T07:44:30.014Z,688
2018-01-30T07:45:29.545Z,692
2018-01-30T07:46:29.999Z,696
2018-01-30T07:47:29.748Z,708
2018-01-30T07:48:29.988Z,732
2018-01-30T07:49:29.490Z,756
2018-01-30T07:50:29.986Z,776
2018-01-30T07:51:29.980Z,804
2018-01-30T07:52:29.710Z,844
2018-01-30T07:53:29.954Z,884
2018-01-30T07:54:29.466Z,916
2018-01-30T07:55:29.474Z,944
2018-01-30T07:56:29.957Z,960
2018-01-30T07:57:29.435Z,980
2018-01-30T07:58:29.687Z,1012
2018-01-30T07:59:29.689Z,1028
2018-01-30T08:00:29.233Z,1036
2018-01-30T08:01:29.667Z,1052
2018-01-30T08:02:29.421Z,1084
2018-01-30T08:03:29.916Z,1128
2018-01-30T08:04:29.900Z,1156
2018-01-30T08:05:29.390Z,1168
2018-01-30T08:06:29.645Z,1168
2018-01-30T08:07:29.430Z,1148
2018-01-30T08:08:29.630Z,1140
2018-01-30T08:09:29.623Z,1172
2018-01-30T08:10:29.131Z,1248
2018-01-30T08:11:29.625Z,1356
2018-01-30T08:12:29.883Z,1480
2018-01-30T08:13:29.626Z,1552
2018-01-30T08:14:29.622Z,1568
2018-01-30T08:15:29.611Z,1540
2018-01-30T08:16:29.851Z,1520
2018-01-30T08:17:29.614Z,1524
2018-01-30T08:18:29.593Z,1584
2018-01-30T08:19:29.323Z,1740
2018-01-30T08:20:29.626Z,1932
2018-01-30T08:21:29.576Z,2052
2018-01-30T08:22:29.571Z,2096
2018-01-30T08:23:29.808Z,1956
2018-01-30T08:24:29.553Z,1712
2018-01-30T08:25:29.798Z,1480
2018-01-30T08:26:29.557Z,1332
2018-01-30T08:27:29.800Z,1248
2018-01-30T08:28:29.302Z,1156
2018-01-30T08:29:29.766Z,1052
2018-01-30T08:30:29.766Z,968
2018-01-30T08:31:29.268Z,944
2018-01-30T08:32:29.504Z,988
2018-01-30T08:33:29.752Z,1064
2018-01-30T08:34:29.498Z,1132
2018-01-30T08:35:29.240Z,1216
2018-01-30T08:36:29.484Z,1324
2018-01-30T08:38:01.085Z,1588
2018-01-30T08:38:29.524Z,1660
2018-01-30T08:39:29.482Z,1704
2018-01-30T08:40:29.469Z,1632
2018-01-30T08:41:29.703Z,1572
2018-01-30T08:42:29.456Z,1552
2018-01-30T08:43:29.449Z,1532
2018-01-30T08:44:29.186Z,1516
2018-01-30T08:45:29.700Z,1564
2018-01-30T08:46:29.441Z,1664
2018-01-30T08:47:29.444Z,1764
2018-01-30T08:48:29.668Z,1788
2018-01-30T08:49:29.417Z,1744
2018-01-30T08:50:29.668Z,1700
2018-01-30T08:51:29.398Z,1684
2018-01-30T08:52:28.896Z,1680
2018-01-30T08:53:29.390Z,1700
2018-01-30T08:54:29.393Z,1736
2018-01-30T08:55:28.912Z,1792
2018-01-30T08:56:29.370Z,1924
2018-01-30T08:57:29.132Z,2200
2018-01-30T08:58:29.647Z,2596
2018-01-30T08:59:29.358Z,2872
2018-01-30T09:00:29.179Z,2852
2018-01-30T09:01:29.361Z,2732
2018-01-30T09:02:29.106Z,2620
2018-01-30T09:03:29.369Z,2596
2018-01-30T09:04:29.084Z,2632
2018-01-30T09:05:29.096Z,2676
2018-01-30T09:06:29.339Z,2752
2018-01-30T09:07:29.310Z,2812
2018-01-30T09:08:29.582Z,2812
2018-01-30T09:09:29.300Z,2752
2018-01-30T09:10:29.295Z,2748
2018-01-30T09:11:28.798Z,2812
2018-01-30T09:12:29.542Z,2924
2018-01-30T09:13:29.274Z,3024
2018-01-30T09:14:29.276Z,3116
2018-01-30T09:15:29.412Z,3164
2018-01-30T09:16:29.563Z,3120
2018-01-30T09:17:29.302Z,3056
2018-01-30T09:18:29.006Z,3028
2018-01-30T09:19:29.001Z,3048
2018-01-30T09:20:29.525Z,3100
2018-01-30T09:21:29.244Z,3192
2018-01-30T09:22:29.020Z,3328
2018-01-30T09:23:29.505Z,3484
2018-01-30T09:24:28.966Z,3572
2018-01-30T09:25:29.477Z,3572
2018-01-30T09:26:29.219Z,3476
2018-01-30T09:27:29.211Z,3424
2018-01-30T09:28:29.462Z,3428
2018-01-30T09:29:29.454Z,3500
2018-01-30T09:30:29.006Z,3584
2018-01-30T09:31:29.251Z,3560
2018-01-30T09:32:29.205Z,3500
2018-01-30T09:33:28.931Z,3552
2018-01-30T09:34:29.422Z,3596
2018-01-30T09:35:28.657Z,3576
2018-01-30T09:36:28.917Z,3612
2018-01-30T09:37:28.901Z,3628
2018-01-30T09:38:28.920Z,3536
2018-01-30T09:39:29.400Z,3464
2018-01-30T09:40:29.197Z,3496
2018-01-30T09:41:28.639Z,3580
2018-01-30T09:42:29.160Z,3756
2018-01-30T09:43:29.128Z,3976
2018-01-30T09:44:28.611Z,4108
2018-01-30T09:45:29.134Z,4156
2018-01-30T09:46:32.614Z,4220
2018-01-30T09:47:28.846Z,4300
2018-01-30T09:48:29.102Z,4384
2018-01-30T09:49:29.226Z,4444
2018-01-30T09:50:29.091Z,4508
2018-01-30T09:51:29.337Z,4552
2018-01-30T09:52:28.821Z,4596
2018-01-30T09:53:29.338Z,4652
2018-01-30T09:54:28.568Z,4732
2018-01-30T09:55:29.088Z,4856
2018-01-30T09:56:28.553Z,4920
2018-01-30T09:57:29.059Z,4984
2018-01-30T09:58:28.544Z,4880
2018-01-30T09:59:28.794Z,4768
2018-01-30T10:00:29.042Z,4768
2018-01-30T10:01:28.785Z,4844
2018-01-30T10:02:29.085Z,4756
2018-01-30T10:03:28.797Z,4592
2018-01-30T10:04:28.776Z,4520
2018-01-30T10:05:28.532Z,4500
2018-01-30T10:06:28.768Z,4380
2018-01-30T10:07:29.534Z,4128
2018-01-30T10:08:29.011Z,4000
2018-01-30T10:09:28.753Z,3916
2018-01-30T10:10:29.006Z,3976
2018-01-30T10:11:29.013Z,4096
2018-01-30T10:12:28.746Z,4048
2018-01-30T10:13:29.024Z,4012
2018-01-30T10:14:28.731Z,3968
2018-01-30T10:15:28.731Z,3844
2018-01-30T10:16:28.974Z,3792
2018-01-30T10:17:28.971Z,3812
2018-01-30T10:18:28.967Z,4024
2018-01-30T10:19:28.968Z,4152
2018-01-30T10:20:28.978Z,4352
2018-01-30T10:21:28.977Z,4596
2018-01-30T10:22:29.219Z,4984
2018-01-30T10:53:04.215Z,6388
2018-01-30T10:54:03.947Z,6824
2018-01-30T10:55:04.192Z,7128
2018-01-30T10:56:04.512Z,7364
2018-01-30T10:57:03.923Z,7500
2018-01-30T10:58:04.166Z,7044
2018-01-30T10:59:04.410Z,6564
2018-01-30T11:00:04.187Z,6100
2018-01-30T11:01:03.896Z,5752
2018-01-30T11:02:03.891Z,5660
2018-01-30T11:03:04.393Z,5656
2018-01-30T11:04:04.376Z,5656
2018-01-30T11:05:04.127Z,5684
2018-01-30T11:06:04.387Z,5712
2018-01-30T11:07:03.868Z,5744
2018-01-30T11:08:04.258Z,5800
2018-01-30T11:09:04.105Z,5944
2018-01-30T11:10:03.620Z,6040
2018-01-30T11:11:04.105Z,6168
2018-01-30T11:12:04.344Z,6560
2018-01-30T11:13:04.100Z,7460
2018-01-30T11:14:04.111Z,7808
2018-01-30T11:15:04.140Z,8076
2018-01-30T11:16:03.868Z,8220
2018-01-30T11:17:04.123Z,8516
2018-01-30T11:18:04.334Z,8484
2018-01-30T11:19:03.823Z,8324
2018-01-30T11:20:04.329Z,8044
2018-01-30T11:21:03.848Z,7920
2018-01-30T11:22:04.066Z,7848
2018-01-30T11:23:03.813Z,7760
2018-01-30T11:24:03.859Z,7944
2018-01-30T11:25:04.355Z,8160
2018-01-30T11:26:04.314Z,8192
2018-01-30T11:27:03.822Z,8080
2018-01-30T11:28:04.059Z,7684
2018-01-30T11:29:03.816Z,7544
2018-01-30T11:30:04.048Z,7580
2018-01-30T11:31:04.048Z,7672
2018-01-30T11:32:04.047Z,7596
2018-01-30T11:33:04.066Z,7256
2018-01-30T11:34:04.042Z,6828
2018-01-30T11:35:04.039Z,6816
2018-01-30T11:36:04.309Z,6784
2018-01-30T11:37:03.782Z,6292
2018-01-30T11:38:04.082Z,5616
2018-01-30T11:39:04.286Z,5516
2018-01-30T11:40:04.040Z,5664
2018-01-30T11:41:03.786Z,5728
2018-01-30T11:42:04.021Z,5816
2018-01-30T11:43:03.778Z,5716
2018-01-30T11:44:04.043Z,5396
2018-01-30T11:45:04.268Z,5040
2018-01-30T11:46:04.281Z,4812
2018-01-30T11:47:04.279Z,4796
2018-01-30T11:48:03.777Z,5064
2018-01-30T11:49:04.266Z,5352
2018-01-30T11:50:04.026Z,5488
2018-01-30T11:51:04.257Z,5556
2018-01-30T11:52:04.257Z,5652
2018-01-30T11:53:05.063Z,5568
2018-01-30T11:54:04.005Z,5220
2018-01-30T11:55:04.278Z,4796
2018-01-30T11:56:03.741Z,4440
2018-01-30T11:57:03.988Z,4196
2018-01-30T11:58:03.981Z,4000
2018-01-30T11:59:03.993Z,3804
2018-01-30T12:00:04.237Z,3672
2018-01-30T12:01:04.020Z,3644
2018-01-30T12:02:04.225Z,3624
2018-01-30T12:03:03.976Z,3604
2018-01-30T12:04:04.263Z,3512
2018-01-30T12:05:03.981Z,3380
2018-01-30T12:06:03.713Z,3164
2018-01-30T12:07:04.229Z,2864
2018-01-30T12:08:03.464Z,2524
2018-01-30T12:09:03.967Z,2200
2018-01-30T12:10:03.959Z,1956
2018-01-30T12:11:04.217Z,1836
2018-01-30T12:12:03.976Z,1820
2018-01-30T12:13:03.948Z,1824
2018-01-30T12:14:03.686Z,1860
2018-01-30T12:15:03.726Z,1900
2018-01-30T12:16:03.687Z,1920
2018-01-30T12:17:03.687Z,1896
2018-01-30T12:18:03.680Z,1836
2018-01-30T12:19:03.699Z,1784
2018-01-30T12:20:03.934Z,1772
2018-01-30T12:21:03.925Z,1772
2018-01-30T12:22:04.175Z,1792
2018-01-30T12:23:03.964Z,1764
2018-01-30T12:24:04.191Z,1728
2018-01-30T12:25:03.917Z,1712
2018-01-30T12:26:04.170Z,1736
2018-01-30T12:27:03.653Z,1720
2018-01-30T12:28:03.643Z,1652
2018-01-30T12:29:04.161Z,1584
2018-01-30T12:30:04.146Z,1528
2018-01-30T12:31:04.142Z,1500
2018-01-30T12:32:04.143Z,1508
2018-01-30T12:33:03.634Z,1552
2018-01-30T12:34:03.877Z,1648
2018-01-30T12:35:03.878Z,1800
2018-01-30T12:36:03.880Z,1924
2018-01-30T12:37:03.383Z,1924
2018-01-30T12:38:04.367Z,1888
2018-01-30T12:39:03.641Z,1840
2018-01-30T12:40:03.606Z,1808
2018-01-30T12:41:03.912Z,1812
2018-01-30T12:42:04.139Z,1816
2018-01-30T12:43:03.859Z,1776
2018-01-30T12:44:03.842Z,1716
2018-01-30T12:45:03.592Z,1684
2018-01-30T12:46:04.092Z,1672
2018-01-30T12:47:03.596Z,1688
2018-01-30T12:48:03.655Z,1688
2018-01-30T12:49:04.146Z,1700
2018-01-30T12:50:04.082Z,1728
2018-01-30T12:51:03.329Z,1784
2018-01-30T12:52:03.577Z,1856
2018-01-30T12:53:03.556Z,1908
2018-01-30T12:54:03.813Z,1872
2018-01-30T12:55:03.858Z,1840
2018-01-30T12:56:03.814Z,1868
2018-01-30T12:57:03.288Z,1916
2018-01-30T12:58:03.538Z,1960
2018-01-30T12:59:03.537Z,2024
2018-01-30T13:00:03.533Z,2088
2018-01-30T13:01:03.528Z,2140
2018-01-30T13:02:04.026Z,2208
2018-01-30T13:03:03.517Z,2320
2018-01-30T13:04:04.110Z,2472
2018-01-30T13:05:03.762Z,2656
2018-01-30T13:06:03.776Z,2888
2018-01-30T13:07:04.020Z,3092
2018-01-30T13:08:04.014Z,3240
2018-01-30T13:09:03.488Z,3356
2018-01-30T13:10:04.011Z,3520
2018-01-30T13:11:03.747Z,3884
2018-01-30T13:12:03.748Z,4476
2018-01-30T13:13:04.542Z,4928
2018-01-30T13:14:03.736Z,5044
2018-01-30T13:15:03.980Z,4888
2018-01-30T13:16:03.729Z,4596
2018-01-30T13:17:03.468Z,4260
2018-01-30T13:18:03.712Z,3984
2018-01-30T13:19:03.476Z,3836
2018-01-30T13:20:03.961Z,3800
2018-01-30T13:21:03.465Z,3832
2018-01-30T13:22:03.457Z,3888
2018-01-30T13:23:04.582Z,3940
2018-01-30T13:24:03.694Z,4024
2018-01-30T13:25:03.442Z,4084
2018-01-30T13:26:03.969Z,4104
2018-01-30T13:27:03.941Z,4120
2018-01-30T13:28:03.426Z,4152
2018-01-30T13:29:03.674Z,4352
2018-01-30T13:30:03.425Z,4532
2018-01-30T13:31:03.672Z,4264
2018-01-30T13:32:03.675Z,3932
2018-01-30T13:33:03.670Z,3988
2018-01-30T13:34:03.668Z,3948
2018-01-30T13:35:03.662Z,3864
2018-01-30T13:36:03.668Z,3720
2018-01-30T13:37:03.910Z,3532
2018-01-30T13:38:03.672Z,3476
2018-01-30T13:39:03.894Z,3692
2018-01-30T13:40:03.637Z,3908
2018-01-30T13:41:03.649Z,3920
2018-01-30T13:42:03.656Z,3928
2018-01-30T13:43:03.889Z,4068
2018-01-30T13:44:03.366Z,4148
2018-01-30T13:45:03.620Z,4144
2018-01-30T13:46:03.635Z,4160
2018-01-30T13:47:03.875Z,4228
2018-01-30T13:48:03.608Z,4376
2018-01-30T13:49:03.618Z,4492
2018-01-30T13:50:03.676Z,4464
2018-01-30T13:51:03.856Z,4360
2018-01-30T13:52:03.619Z,4172
2018-01-30T13:53:03.843Z,3876
2018-01-30T13:54:03.847Z,3580
2018-01-30T13:55:03.592Z,3356
2018-01-30T13:56:03.841Z,3124
2018-01-30T13:57:03.904Z,2996
2018-01-30T13:58:03.378Z,2876
2018-01-30T13:59:03.581Z,2784
2018-01-30T14:00:03.325Z,2736
2018-01-30T14:01:03.572Z,2696
2018-01-30T14:02:03.827Z,2588
2018-01-30T14:03:03.632Z,2392
2018-01-30T14:04:03.311Z,2176
2018-01-30T14:05:03.562Z,1992
2018-01-30T14:06:03.562Z,1852
2018-01-30T14:07:03.801Z,1768
2018-01-30T14:08:03.549Z,1740
2018-01-30T14:09:03.552Z,1732
2018-01-30T14:10:03.293Z,1740
2018-01-30T14:11:03.286Z,1716
2018-01-30T14:12:03.287Z,1644
2018-01-30T14:13:03.534Z,1556
2018-01-30T14:14:03.273Z,1472
2018-01-30T14:15:03.558Z,1404
2018-01-30T14:16:03.527Z,1352
2018-01-30T14:17:03.526Z,1312
2018-01-30T14:18:03.548Z,1284
2018-01-30T14:19:03.510Z,1252
2018-01-30T14:20:03.501Z,1220
2018-01-30T14:21:03.500Z,1180
2018-01-30T14:22:03.751Z,1152
2018-01-30T14:23:03.744Z,1148
2018-01-30T14:24:03.493Z,1184
2018-01-30T14:25:03.235Z,1280
2018-01-30T14:26:03.539Z,1404
2018-01-30T14:27:03.242Z,1516
2018-01-30T14:28:03.733Z,1608
2018-01-30T14:29:03.476Z,1648
2018-01-30T14:30:03.725Z,1668
2018-01-30T14:31:03.723Z,1668
2018-01-30T14:32:03.210Z,1668